Fishguard, United Kingdom
Current Conditions -  °F | °C
As of 7:50 AM on Tuesday 21 Oct 2014 (Local Time) from EGOP Reporting Station
Few Clouds Few Clouds  
Wind Chill: 52°   Ceiling: Unl
Heat Index: 52°   Visibility: 6mi
Dew Point: 43°   Wind: 28mph
Humidity: 71%   Direction: 290°WNW
Pressure: 29.71"   Gusts: NA
Location:  51.99°N, 4.98°W
Report Text: EGOP 210650Z AUTO 29024KT 9999 // FEW039/// 11/06 Q1006
Loading
Personal Weather Stations






























Interactive Weather Map
Tropical Storm Tracking
New forecast layout! Learn more

10-Day Weather Forecast

Advertisements
Track Severe Weather on mobile